sensor_id;sensor_type;location;lat;lon;timestamp;P1;durP1;ratioP1;P2;durP2;ratioP2
37019;SDS011;22932;52.442;16.896;2022-09-09T00:01:08;20.80;;;19.00;;
37019;SDS011;22932;52.442;16.896;2022-09-09T00:03:44;19.80;;;18.10;;
37019;SDS011;22932;52.442;16.896;2022-09-09T00:06:21;19.80;;;18.20;;
37019;SDS011;22932;52.442;16.896;2022-09-09T00:08:56;20.20;;;18.40;;
37019;SDS011;22932;52.442;16.896;2022-09-09T00:11:30;19.60;;;18.00;;
37019;SDS011;22932;52.442;16.896;2022-09-09T00:14:08;19.80;;;18.00;;
37019;SDS011;22932;52.442;16.896;2022-09-09T00:16:45;20.60;;;18.80;;
37019;SDS011;22932;52.442;16.896;2022-09-09T00:19:20;20.00;;;18.40;;
37019;SDS011;22932;52.442;16.896;2022-09-09T00:21:56;20.00;;;18.50;;
37019;SDS011;22932;52.442;16.896;2022-09-09T00:24:36;19.50;;;17.80;;
37019;SDS011;22932;52.442;16.896;2022-09-09T00:27:08;19.40;;;17.80;;
37019;SDS011;22932;52.442;16.896;2022-09-09T00:29:43;19.30;;;17.70;;
37019;SDS011;22932;52.442;16.896;2022-09-09T00:32:18;19.40;;;17.80;;
37019;SDS011;22932;52.442;16.896;2022-09-09T00:34:48;19.50;;;17.70;;
37019;SDS011;22932;52.442;16.896;2022-09-09T00:37:19;20.00;;;18.20;;
37019;SDS011;22932;52.442;16.896;2022-09-09T00:39:51;19.30;;;17.50;;
37019;SDS011;22932;52.442;16.896;2022-09-09T00:42:24;20.50;;;18.60;;
37019;SDS011;22932;52.442;16.896;2022-09-09T00:45:01;19.00;;;17.50;;
37019;SDS011;22932;52.442;16.896;2022-09-09T00:47:39;18.60;;;17.00;;
37019;SDS011;22932;52.442;16.896;2022-09-09T00:50:13;18.10;;;16.60;;
37019;SDS011;22932;52.442;16.896;2022-09-09T00:52:57;18.10;;;16.70;;
37019;SDS011;22932;52.442;16.896;2022-09-09T00:55:34;19.90;;;18.20;;
37019;SDS011;22932;52.442;16.896;2022-09-09T00:58:11;17.40;;;15.80;;
37019;SDS011;22932;52.442;16.896;2022-09-09T01:00:41;18.40;;;16.90;;
37019;SDS011;22932;52.442;16.896;2022-09-09T01:03:20;17.70;;;16.20;;
37019;SDS011;22932;52.442;16.896;2022-09-09T01:06:11;17.90;;;16.30;;
37019;SDS011;22932;52.442;16.896;2022-09-09T01:11:41;18.00;;;16.50;;
37019;SDS011;22932;52.442;16.896;2022-09-09T01:14:19;17.20;;;15.70;;
37019;SDS011;22932;52.442;16.896;2022-09-09T01:16:57;16.60;;;15.00;;
37019;SDS011;22932;52.442;16.896;2022-09-09T01:19:35;16.30;;;14.90;;
37019;SDS011;22932;52.442;16.896;2022-09-09T01:22:10;15.50;;;14.20;;
37019;SDS011;22932;52.442;16.896;2022-09-09T01:24:51;15.20;;;13.80;;
37019;SDS011;22932;52.442;16.896;2022-09-09T01:27:38;15.20;;;13.90;;
37019;SDS011;22932;52.442;16.896;2022-09-09T01:30:10;14.30;;;13.10;;
37019;SDS011;22932;52.442;16.896;2022-09-09T01:32:41;14.50;;;13.40;;
37019;SDS011;22932;52.442;16.896;2022-09-09T01:35:11;14.40;;;13.20;;
37019;SDS011;22932;52.442;16.896;2022-09-09T01:37:44;13.90;;;12.80;;
37019;SDS011;22932;52.442;16.896;2022-09-09T01:40:11;14.20;;;13.10;;
37019;SDS011;22932;52.442;16.896;2022-09-09T01:42:39;13.90;;;12.70;;
37019;SDS011;22932;52.442;16.896;2022-09-09T01:45:10;14.50;;;13.20;;
37019;SDS011;22932;52.442;16.896;2022-09-09T01:47:48;12.90;;;11.70;;
37019;SDS011;22932;52.442;16.896;2022-09-09T01:50:16;13.90;;;12.80;;
37019;SDS011;22932;52.442;16.896;2022-09-09T01:52:44;14.10;;;12.90;;
37019;SDS011;22932;52.442;16.896;2022-09-09T01:55:16;12.80;;;11.70;;
37019;SDS011;22932;52.442;16.896;2022-09-09T01:57:50;12.00;;;11.00;;
37019;SDS011;22932;52.442;16.896;2022-09-09T02:00:25;14.30;;;13.20;;
37019;SDS011;22932;52.442;16.896;2022-09-09T02:02:55;13.30;;;12.20;;
37019;SDS011;22932;52.442;16.896;2022-09-09T02:05:30;13.20;;;12.10;;
37019;SDS011;22932;52.442;16.896;2022-09-09T02:08:05;12.90;;;11.80;;
37019;SDS011;22932;52.442;16.896;2022-09-09T02:10:36;11.30;;;10.50;;
37019;SDS011;22932;52.442;16.896;2022-09-09T02:13:09;11.70;;;10.80;;
37019;SDS011;22932;52.442;16.896;2022-09-09T02:15:42;12.20;;;11.20;;
37019;SDS011;22932;52.442;16.896;2022-09-09T02:18:12;11.90;;;10.80;;
37019;SDS011;22932;52.442;16.896;2022-09-09T02:20:45;11.70;;;10.80;;
37019;SDS011;22932;52.442;16.896;2022-09-09T02:23:13;12.00;;;11.00;;
37019;SDS011;22932;52.442;16.896;2022-09-09T02:25:42;12.20;;;11.00;;
37019;SDS011;22932;52.442;16.896;2022-09-09T02:28:11;11.80;;;11.00;;
37019;SDS011;22932;52.442;16.896;2022-09-09T02:30:40;12.10;;;11.20;;
37019;SDS011;22932;52.442;16.896;2022-09-09T02:33:12;62.40;;;52.50;;
37019;SDS011;22932;52.442;16.896;2022-09-09T02:35:41;73.00;;;64.00;;
37019;SDS011;22932;52.442;16.896;2022-09-09T02:38:10;81.20;;;71.00;;
37019;SDS011;22932;52.442;16.896;2022-09-09T02:40:41;56.10;;;50.10;;
37019;SDS011;22932;52.442;16.896;2022-09-09T02:43:08;43.00;;;38.50;;
37019;SDS011;22932;52.442;16.896;2022-09-09T02:45:36;34.30;;;30.70;;
37019;SDS011;22932;52.442;16.896;2022-09-09T02:48:09;28.30;;;25.60;;
37019;SDS011;22932;52.442;16.896;2022-09-09T02:50:42;28.70;;;26.20;;
37019;SDS011;22932;52.442;16.896;2022-09-09T02:53:20;25.20;;;22.70;;
37019;SDS011;22932;52.442;16.896;2022-09-09T02:55:51;23.60;;;21.40;;
37019;SDS011;22932;52.442;16.896;2022-09-09T02:58:25;19.30;;;17.50;;
37019;SDS011;22932;52.442;16.896;2022-09-09T03:00:53;15.70;;;14.20;;
37019;SDS011;22932;52.442;16.896;2022-09-09T03:03:23;15.90;;;14.60;;
37019;SDS011;22932;52.442;16.896;2022-09-09T03:05:50;16.00;;;14.50;;
37019;SDS011;22932;52.442;16.896;2022-09-09T03:08:17;13.60;;;12.50;;
37019;SDS011;22932;52.442;16.896;2022-09-09T03:10:44;14.30;;;13.00;;
37019;SDS011;22932;52.442;16.896;2022-09-09T03:13:12;13.50;;;12.30;;
37019;SDS011;22932;52.442;16.896;2022-09-09T03:15:40;20.80;;;19.10;;
37019;SDS011;22932;52.442;16.896;2022-09-09T03:18:15;40.90;;;36.90;;
37019;SDS011;22932;52.442;16.896;2022-09-09T03:20:48;42.00;;;38.30;;
37019;SDS011;22932;52.442;16.896;2022-09-09T03:23:16;33.20;;;30.00;;
37019;SDS011;22932;52.442;16.896;2022-09-09T03:25:47;23.70;;;21.70;;
37019;SDS011;22932;52.442;16.896;2022-09-09T03:28:14;16.40;;;14.90;;
37019;SDS011;22932;52.442;16.896;2022-09-09T03:30:46;16.10;;;14.70;;
37019;SDS011;22932;52.442;16.896;2022-09-09T03:33:14;16.50;;;15.10;;
37019;SDS011;22932;52.442;16.896;2022-09-09T03:35:58;14.80;;;13.50;;
37019;SDS011;22932;52.442;16.896;2022-09-09T03:38:35;13.80;;;12.70;;
37019;SDS011;22932;52.442;16.896;2022-09-09T03:41:13;11.50;;;10.70;;
37019;SDS011;22932;52.442;16.896;2022-09-09T03:43:45;12.30;;;11.40;;
37019;SDS011;22932;52.442;16.896;2022-09-09T03:46:12;13.60;;;12.30;;
37019;SDS011;22932;52.442;16.896;2022-09-09T03:48:48;14.70;;;13.50;;
37019;SDS011;22932;52.442;16.896;2022-09-09T03:51:17;15.20;;;14.10;;
37019;SDS011;22932;52.442;16.896;2022-09-09T03:53:55;15.80;;;14.50;;
37019;SDS011;22932;52.442;16.896;2022-09-09T03:56:23;16.20;;;14.80;;
37019;SDS011;22932;52.442;16.896;2022-09-09T03:58:51;14.00;;;12.80;;
37019;SDS011;22932;52.442;16.896;2022-09-09T04:01:23;14.50;;;13.20;;
37019;SDS011;22932;52.442;16.896;2022-09-09T04:03:50;14.60;;;13.40;;
37019;SDS011;22932;52.442;16.896;2022-09-09T04:06:18;13.80;;;12.80;;
37019;SDS011;22932;52.442;16.896;2022-09-09T04:08:47;13.90;;;12.80;;
37019;SDS011;22932;52.442;16.896;2022-09-09T04:11:14;13.30;;;12.30;;
37019;SDS011;22932;52.442;16.896;2022-09-09T04:13:51;13.90;;;12.90;;
37019;SDS011;22932;52.442;16.896;2022-09-09T04:16:20;14.20;;;13.10;;
37019;SDS011;22932;52.442;16.896;2022-09-09T04:18:48;13.90;;;12.70;;
37019;SDS011;22932;52.442;16.896;2022-09-09T04:21:16;14.40;;;13.20;;
37019;SDS011;22932;52.442;16.896;2022-09-09T04:23:43;16.10;;;14.70;;
37019;SDS011;22932;52.442;16.896;2022-09-09T04:26:10;18.50;;;16.70;;
37019;SDS011;22932;52.442;16.896;2022-09-09T04:28:37;16.40;;;14.90;;
37019;SDS011;22932;52.442;16.896;2022-09-09T04:31:05;15.90;;;14.40;;
37019;SDS011;22932;52.442;16.896;2022-09-09T04:33:35;16.60;;;14.90;;
37019;SDS011;22932;52.442;16.896;2022-09-09T04:36:02;17.30;;;15.80;;
37019;SDS011;22932;52.442;16.896;2022-09-09T04:38:30;17.40;;;15.90;;
37019;SDS011;22932;52.442;16.896;2022-09-09T04:40:57;20.10;;;18.20;;
37019;SDS011;22932;52.442;16.896;2022-09-09T04:43:25;20.60;;;18.70;;
37019;SDS011;22932;52.442;16.896;2022-09-09T04:46:02;19.30;;;17.60;;
37019;SDS011;22932;52.442;16.896;2022-09-09T04:48:38;21.30;;;19.40;;
37019;SDS011;22932;52.442;16.896;2022-09-09T04:51:19;20.60;;;18.70;;
37019;SDS011;22932;52.442;16.896;2022-09-09T04:53:48;20.80;;;18.70;;
37019;SDS011;22932;52.442;16.896;2022-09-09T04:56:17;22.80;;;20.80;;
37019;SDS011;22932;52.442;16.896;2022-09-09T04:58:47;20.30;;;18.70;;
37019;SDS011;22932;52.442;16.896;2022-09-09T05:01:15;21.80;;;19.90;;
37019;SDS011;22932;52.442;16.896;2022-09-09T05:03:43;20.80;;;18.90;;
37019;SDS011;22932;52.442;16.896;2022-09-09T05:06:21;20.20;;;18.20;;
37019;SDS011;22932;52.442;16.896;2022-09-09T05:08:49;21.30;;;19.30;;
37019;SDS011;22932;52.442;16.896;2022-09-09T05:11:17;21.40;;;19.50;;
37019;SDS011;22932;52.442;16.896;2022-09-09T05:13:45;21.00;;;19.00;;
37019;SDS011;22932;52.442;16.896;2022-09-09T05:16:13;22.00;;;19.70;;
37019;SDS011;22932;52.442;16.896;2022-09-09T05:18:41;21.70;;;19.70;;
37019;SDS011;22932;52.442;16.896;2022-09-09T05:21:23;22.90;;;20.80;;
37019;SDS011;22932;52.442;16.896;2022-09-09T05:23:52;28.30;;;22.20;;
37019;SDS011;22932;52.442;16.896;2022-09-09T05:26:20;23.00;;;20.70;;
37019;SDS011;22932;52.442;16.896;2022-09-09T05:28:51;21.10;;;19.10;;
37019;SDS011;22932;52.442;16.896;2022-09-09T05:31:19;21.50;;;19.40;;
37019;SDS011;22932;52.442;16.896;2022-09-09T05:33:46;22.10;;;19.90;;
37019;SDS011;22932;52.442;16.896;2022-09-09T05:36:16;23.10;;;20.70;;
37019;SDS011;22932;52.442;16.896;2022-09-09T05:38:44;22.00;;;19.80;;
37019;SDS011;22932;52.442;16.896;2022-09-09T05:41:12;23.10;;;20.80;;
37019;SDS011;22932;52.442;16.896;2022-09-09T05:43:45;23.20;;;21.00;;
37019;SDS011;22932;52.442;16.896;2022-09-09T05:46:15;23.20;;;21.00;;
37019;SDS011;22932;52.442;16.896;2022-09-09T05:48:54;26.40;;;23.80;;
37019;SDS011;22932;52.442;16.896;2022-09-09T05:51:24;23.80;;;21.50;;
37019;SDS011;22932;52.442;16.896;2022-09-09T05:53:57;26.20;;;23.60;;
37019;SDS011;22932;52.442;16.896;2022-09-09T05:56:25;25.10;;;22.50;;
37019;SDS011;22932;52.442;16.896;2022-09-09T05:58:58;24.70;;;22.40;;
37019;SDS011;22932;52.442;16.896;2022-09-09T06:01:27;21.10;;;19.20;;
37019;SDS011;22932;52.442;16.896;2022-09-09T06:04:06;20.00;;;18.20;;
37019;SDS011;22932;52.442;16.896;2022-09-09T06:06:40;21.30;;;19.10;;
37019;SDS011;22932;52.442;16.896;2022-09-09T06:09:09;21.50;;;19.50;;
37019;SDS011;22932;52.442;16.896;2022-09-09T06:11:38;21.30;;;19.10;;
37019;SDS011;22932;52.442;16.896;2022-09-09T06:14:14;23.60;;;19.80;;
37019;SDS011;22932;52.442;16.896;2022-09-09T06:16:43;24.40;;;19.50;;
37019;SDS011;22932;52.442;16.896;2022-09-09T06:19:22;22.40;;;20.20;;
37019;SDS011;22932;52.442;16.896;2022-09-09T06:21:52;22.50;;;20.50;;
37019;SDS011;22932;52.442;16.896;2022-09-09T06:24:22;24.20;;;22.00;;
37019;SDS011;22932;52.442;16.896;2022-09-09T06:26:56;25.10;;;22.80;;
37019;SDS011;22932;52.442;16.896;2022-09-09T06:29:24;25.30;;;23.00;;
37019;SDS011;22932;52.442;16.896;2022-09-09T06:31:55;27.00;;;24.50;;
37019;SDS011;22932;52.442;16.896;2022-09-09T06:34:35;28.90;;;26.30;;
37019;SDS011;22932;52.442;16.896;2022-09-09T06:37:02;28.40;;;25.70;;
37019;SDS011;22932;52.442;16.896;2022-09-09T06:39:38;28.00;;;25.40;;
37019;SDS011;22932;52.442;16.896;2022-09-09T06:44:59;29.10;;;26.30;;
37019;SDS011;22932;52.442;16.896;2022-09-09T06:47:35;29.20;;;26.50;;
37019;SDS011;22932;52.442;16.896;2022-09-09T06:50:09;31.10;;;28.00;;
37019;SDS011;22932;52.442;16.896;2022-09-09T06:52:46;29.60;;;26.80;;
37019;SDS011;22932;52.442;16.896;2022-09-09T06:55:20;29.00;;;26.20;;
37019;SDS011;22932;52.442;16.896;2022-09-09T06:57:55;29.80;;;27.00;;
37019;SDS011;22932;52.442;16.896;2022-09-09T07:00:28;26.00;;;23.80;;
37019;SDS011;22932;52.442;16.896;2022-09-09T07:03:04;23.10;;;21.00;;
37019;SDS011;22932;52.442;16.896;2022-09-09T07:05:31;23.40;;;21.40;;
37019;SDS011;22932;52.442;16.896;2022-09-09T07:07:59;23.50;;;21.30;;
37019;SDS011;22932;52.442;16.896;2022-09-09T07:10:26;22.70;;;20.60;;
37019;SDS011;22932;52.442;16.896;2022-09-09T07:12:53;22.10;;;20.10;;
37019;SDS011;22932;52.442;16.896;2022-09-09T07:15:20;23.00;;;21.10;;
37019;SDS011;22932;52.442;16.896;2022-09-09T07:17:54;26.20;;;23.80;;
37019;SDS011;22932;52.442;16.896;2022-09-09T07:20:21;26.70;;;24.20;;
37019;SDS011;22932;52.442;16.896;2022-09-09T07:22:48;25.40;;;23.10;;
37019;SDS011;22932;52.442;16.896;2022-09-09T07:25:16;25.70;;;23.40;;
37019;SDS011;22932;52.442;16.896;2022-09-09T07:27:43;25.50;;;23.40;;
37019;SDS011;22932;52.442;16.896;2022-09-09T07:30:11;24.50;;;22.00;;
37019;SDS011;22932;52.442;16.896;2022-09-09T07:32:39;21.90;;;19.80;;
37019;SDS011;22932;52.442;16.896;2022-09-09T07:35:07;20.30;;;18.50;;
37019;SDS011;22932;52.442;16.896;2022-09-09T07:37:36;16.70;;;15.30;;
37019;SDS011;22932;52.442;16.896;2022-09-09T07:40:04;16.80;;;15.50;;
37019;SDS011;22932;52.442;16.896;2022-09-09T07:42:32;17.50;;;15.80;;
37019;SDS011;22932;52.442;16.896;2022-09-09T07:45:00;17.00;;;15.60;;
37019;SDS011;22932;52.442;16.896;2022-09-09T07:47:27;16.40;;;15.00;;
37019;SDS011;22932;52.442;16.896;2022-09-09T07:49:54;14.90;;;13.60;;
37019;SDS011;22932;52.442;16.896;2022-09-09T07:52:24;12.90;;;11.80;;
37019;SDS011;22932;52.442;16.896;2022-09-09T07:54:52;11.30;;;10.50;;
37019;SDS011;22932;52.442;16.896;2022-09-09T07:57:27;13.30;;;12.20;;
37019;SDS011;22932;52.442;16.896;2022-09-09T08:00:05;11.30;;;10.30;;
37019;SDS011;22932;52.442;16.896;2022-09-09T08:02:33;11.20;;;10.40;;
37019;SDS011;22932;52.442;16.896;2022-09-09T08:05:01;10.10;;;9.40;;
37019;SDS011;22932;52.442;16.896;2022-09-09T08:07:29;10.80;;;10.00;;
37019;SDS011;22932;52.442;16.896;2022-09-09T08:09:56;11.20;;;10.30;;
37019;SDS011;22932;52.442;16.896;2022-09-09T08:12:24;11.30;;;10.50;;
37019;SDS011;22932;52.442;16.896;2022-09-09T08:14:51;12.80;;;11.80;;
37019;SDS011;22932;52.442;16.896;2022-09-09T08:17:19;11.70;;;10.90;;
37019;SDS011;22932;52.442;16.896;2022-09-09T08:19:46;12.90;;;12.00;;
37019;SDS011;22932;52.442;16.896;2022-09-09T08:22:14;13.00;;;11.90;;
37019;SDS011;22932;52.442;16.896;2022-09-09T08:24:42;14.10;;;13.00;;
37019;SDS011;22932;52.442;16.896;2022-09-09T08:27:16;13.10;;;12.20;;
37019;SDS011;22932;52.442;16.896;2022-09-09T08:29:45;14.30;;;13.00;;
37019;SDS011;22932;52.442;16.896;2022-09-09T08:32:12;13.40;;;12.30;;
37019;SDS011;22932;52.442;16.896;2022-09-09T08:34:42;12.80;;;11.90;;
37019;SDS011;22932;52.442;16.896;2022-09-09T08:37:10;11.60;;;10.70;;
37019;SDS011;22932;52.442;16.896;2022-09-09T08:39:45;12.40;;;11.50;;
37019;SDS011;22932;52.442;16.896;2022-09-09T08:45:14;14.40;;;13.00;;
37019;SDS011;22932;52.442;16.896;2022-09-09T08:47:57;14.40;;;13.30;;
37019;SDS011;22932;52.442;16.896;2022-09-09T08:50:51;12.60;;;11.70;;
37019;SDS011;22932;52.442;16.896;2022-09-09T08:53:27;13.30;;;12.40;;
37019;SDS011;22932;52.442;16.896;2022-09-09T08:56:07;12.80;;;11.90;;
37019;SDS011;22932;52.442;16.896;2022-09-09T08:58:51;12.90;;;12.00;;
37019;SDS011;22932;52.442;16.896;2022-09-09T09:01:25;8.30;;;7.60;;
37019;SDS011;22932;52.442;16.896;2022-09-09T09:04:03;8.10;;;7.50;;
37019;SDS011;22932;52.442;16.896;2022-09-09T09:06:48;8.20;;;6.10;;
37019;SDS011;22932;52.442;16.896;2022-09-09T09:09:35;6.40;;;5.90;;
37019;SDS011;22932;52.442;16.896;2022-09-09T09:12:27;6.60;;;5.90;;
37019;SDS011;22932;52.442;16.896;2022-09-09T09:14:58;6.20;;;5.60;;
37019;SDS011;22932;52.442;16.896;2022-09-09T09:17:26;5.70;;;5.20;;
37019;SDS011;22932;52.442;16.896;2022-09-09T09:20:11;5.10;;;4.70;;
37019;SDS011;22932;52.442;16.896;2022-09-09T09:22:47;5.60;;;5.20;;
37019;SDS011;22932;52.442;16.896;2022-09-09T09:25:17;4.60;;;4.30;;
37019;SDS011;22932;52.442;16.896;2022-09-09T09:30:18;4.80;;;4.40;;
37019;SDS011;22932;52.442;16.896;2022-09-09T09:32:58;6.20;;;5.80;;
37019;SDS011;22932;52.442;16.896;2022-09-09T09:35:37;6.20;;;5.80;;
37019;SDS011;22932;52.442;16.896;2022-09-09T09:38:16;5.50;;;5.00;;
37019;SDS011;22932;52.442;16.896;2022-09-09T09:40:54;5.10;;;4.70;;
37019;SDS011;22932;52.442;16.896;2022-09-09T09:43:24;5.70;;;5.20;;
37019;SDS011;22932;52.442;16.896;2022-09-09T09:45:54;5.20;;;4.80;;
37019;SDS011;22932;52.442;16.896;2022-09-09T09:48:23;5.20;;;4.80;;
37019;SDS011;22932;52.442;16.896;2022-09-09T09:50:52;4.20;;;4.00;;
37019;SDS011;22932;52.442;16.896;2022-09-09T09:53:30;3.80;;;3.50;;
37019;SDS011;22932;52.442;16.896;2022-09-09T09:55:59;4.20;;;3.90;;
37019;SDS011;22932;52.442;16.896;2022-09-09T09:58:30;3.20;;;3.00;;
37019;SDS011;22932;52.442;16.896;2022-09-09T10:01:21;3.20;;;2.70;;
37019;SDS011;22932;52.442;16.896;2022-09-09T10:03:51;3.40;;;3.20;;
37019;SDS011;22932;52.442;16.896;2022-09-09T10:06:29;4.80;;;4.30;;
37019;SDS011;22932;52.442;16.896;2022-09-09T10:18:21;4.60;;;4.20;;
37019;SDS011;22932;52.442;16.896;2022-09-09T10:21:09;4.50;;;4.20;;
37019;SDS011;22932;52.442;16.896;2022-09-09T10:23:52;3.70;;;3.40;;
37019;SDS011;22932;52.442;16.896;2022-09-09T10:26:37;3.40;;;3.20;;
37019;SDS011;22932;52.442;16.896;2022-09-09T10:29:15;3.60;;;3.30;;
37019;SDS011;22932;52.442;16.896;2022-09-09T10:31:59;3.50;;;3.30;;
37019;SDS011;22932;52.442;16.896;2022-09-09T10:34:46;4.10;;;3.80;;
37019;SDS011;22932;52.442;16.896;2022-09-09T10:37:31;4.20;;;3.80;;
37019;SDS011;22932;52.442;16.896;2022-09-09T10:40:15;4.00;;;3.60;;
37019;SDS011;22932;52.442;16.896;2022-09-09T10:43:13;3.40;;;3.10;;
37019;SDS011;22932;52.442;16.896;2022-09-09T10:45:54;4.50;;;3.90;;
37019;SDS011;22932;52.442;16.896;2022-09-09T10:48:34;4.90;;;4.50;;
37019;SDS011;22932;52.442;16.896;2022-09-09T10:51:17;4.60;;;4.30;;
37019;SDS011;22932;52.442;16.896;2022-09-09T10:53:53;4.70;;;4.30;;
37019;SDS011;22932;52.442;16.896;2022-09-09T10:57:02;5.30;;;4.90;;
37019;SDS011;22932;52.442;16.896;2022-09-09T10:59:35;4.80;;;4.50;;
37019;SDS011;22932;52.442;16.896;2022-09-09T11:02:10;7.40;;;6.80;;
37019;SDS011;22932;52.442;16.896;2022-09-09T11:04:47;7.10;;;6.50;;
37019;SDS011;22932;52.442;16.896;2022-09-09T11:07:24;6.10;;;5.70;;
37019;SDS011;22932;52.442;16.896;2022-09-09T11:10:04;6.00;;;5.60;;
37019;SDS011;22932;52.442;16.896;2022-09-09T11:12:45;6.30;;;5.90;;
37019;SDS011;22932;52.442;16.896;2022-09-09T11:15:16;4.80;;;4.50;;
37019;SDS011;22932;52.442;16.896;2022-09-09T11:17:47;5.40;;;4.90;;
37019;SDS011;22932;52.442;16.896;2022-09-09T11:20:33;4.90;;;4.60;;
37019;SDS011;22932;52.442;16.896;2022-09-09T11:23:01;3.40;;;3.10;;
37019;SDS011;22932;52.442;16.896;2022-09-09T11:25:33;3.10;;;2.60;;
37019;SDS011;22932;52.442;16.896;2022-09-09T11:28:16;2.60;;;2.30;;
37019;SDS011;22932;52.442;16.896;2022-09-09T11:30:57;2.30;;;2.10;;
37019;SDS011;22932;52.442;16.896;2022-09-09T11:39:51;3.00;;;1.90;;
37019;SDS011;22932;52.442;16.896;2022-09-09T11:42:33;3.50;;;2.50;;
37019;SDS011;22932;52.442;16.896;2022-09-09T11:45:09;3.30;;;2.00;;
37019;SDS011;22932;52.442;16.896;2022-09-09T11:47:52;3.40;;;2.30;;
37019;SDS011;22932;52.442;16.896;2022-09-09T11:53:24;4.40;;;2.00;;
37019;SDS011;22932;52.442;16.896;2022-09-09T11:56:05;2.50;;;1.60;;
37019;SDS011;22932;52.442;16.896;2022-09-09T11:58:39;2.20;;;1.50;;
37019;SDS011;22932;52.442;16.896;2022-09-09T12:04:01;2.30;;;1.80;;
37019;SDS011;22932;52.442;16.896;2022-09-09T12:06:44;1.70;;;1.60;;
37019;SDS011;22932;52.442;16.896;2022-09-09T12:09:22;1.50;;;1.20;;
37019;SDS011;22932;52.442;16.896;2022-09-09T12:11:53;2.10;;;1.40;;
37019;SDS011;22932;52.442;16.896;2022-09-09T12:14:43;2.30;;;1.30;;
37019;SDS011;22932;52.442;16.896;2022-09-09T12:17:21;1.20;;;1.20;;
37019;SDS011;22932;52.442;16.896;2022-09-09T12:20:01;1.20;;;1.10;;
37019;SDS011;22932;52.442;16.896;2022-09-09T12:22:40;2.00;;;1.50;;
37019;SDS011;22932;52.442;16.896;2022-09-09T12:25:18;1.50;;;1.40;;
37019;SDS011;22932;52.442;16.896;2022-09-09T12:27:58;1.90;;;1.60;;
37019;SDS011;22932;52.442;16.896;2022-09-09T12:30:32;1.50;;;1.30;;
37019;SDS011;22932;52.442;16.896;2022-09-09T12:33:09;3.10;;;1.70;;
37019;SDS011;22932;52.442;16.896;2022-09-09T12:35:42;2.10;;;1.30;;
37019;SDS011;22932;52.442;16.896;2022-09-09T12:40:53;2.50;;;1.20;;
37019;SDS011;22932;52.442;16.896;2022-09-09T12:43:26;2.30;;;1.10;;
37019;SDS011;22932;52.442;16.896;2022-09-09T12:45:54;1.70;;;1.20;;
37019;SDS011;22932;52.442;16.896;2022-09-09T12:48:27;1.50;;;1.10;;
37019;SDS011;22932;52.442;16.896;2022-09-09T12:51:16;1.60;;;1.10;;
37019;SDS011;22932;52.442;16.896;2022-09-09T12:53:59;3.00;;;1.20;;
37019;SDS011;22932;52.442;16.896;2022-09-09T12:56:34;2.80;;;1.30;;
37019;SDS011;22932;52.442;16.896;2022-09-09T12:59:21;1.80;;;1.20;;
37019;SDS011;22932;52.442;16.896;2022-09-09T13:02:01;1.20;;;1.10;;
37019;SDS011;22932;52.442;16.896;2022-09-09T13:04:48;1.00;;;0.80;;
37019;SDS011;22932;52.442;16.896;2022-09-09T13:07:21;3.10;;;1.20;;
37019;SDS011;22932;52.442;16.896;2022-09-09T13:09:50;3.30;;;1.00;;
37019;SDS011;22932;52.442;16.896;2022-09-09T13:12:18;3.20;;;1.00;;
37019;SDS011;22932;52.442;16.896;2022-09-09T13:14:48;2.90;;;1.30;;
37019;SDS011;22932;52.442;16.896;2022-09-09T13:17:20;4.20;;;1.20;;
37019;SDS011;22932;52.442;16.896;2022-09-09T13:22:30;1.50;;;1.00;;
37019;SDS011;22932;52.442;16.896;2022-09-09T13:25:13;8.40;;;1.50;;
37019;SDS011;22932;52.442;16.896;2022-09-09T13:27:52;3.30;;;1.10;;
37019;SDS011;22932;52.442;16.896;2022-09-09T13:30:23;1.60;;;1.20;;
37019;SDS011;22932;52.442;16.896;2022-09-09T13:33:02;1.80;;;1.00;;
37019;SDS011;22932;52.442;16.896;2022-09-09T13:35:32;1.30;;;1.00;;
37019;SDS011;22932;52.442;16.896;2022-09-09T13:38:13;1.20;;;1.10;;
37019;SDS011;22932;52.442;16.896;2022-09-09T13:40:52;2.50;;;1.20;;
37019;SDS011;22932;52.442;16.896;2022-09-09T13:43:21;3.40;;;1.10;;
37019;SDS011;22932;52.442;16.896;2022-09-09T13:45:54;6.20;;;1.30;;
37019;SDS011;22932;52.442;16.896;2022-09-09T13:48:24;3.10;;;1.10;;
37019;SDS011;22932;52.442;16.896;2022-09-09T13:50:59;2.10;;;1.40;;
37019;SDS011;22932;52.442;16.896;2022-09-09T13:53:30;2.20;;;1.20;;
37019;SDS011;22932;52.442;16.896;2022-09-09T13:55:58;2.00;;;1.30;;
37019;SDS011;22932;52.442;16.896;2022-09-09T13:58:25;4.40;;;1.60;;
37019;SDS011;22932;52.442;16.896;2022-09-09T14:00:53;3.80;;;1.20;;
37019;SDS011;22932;52.442;16.896;2022-09-09T14:03:20;3.10;;;1.30;;
37019;SDS011;22932;52.442;16.896;2022-09-09T14:05:47;1.70;;;1.30;;
37019;SDS011;22932;52.442;16.896;2022-09-09T14:08:25;1.70;;;1.40;;
37019;SDS011;22932;52.442;16.896;2022-09-09T14:11:02;1.80;;;1.10;;
37019;SDS011;22932;52.442;16.896;2022-09-09T14:13:39;1.90;;;1.20;;
37019;SDS011;22932;52.442;16.896;2022-09-09T14:16:12;2.00;;;1.10;;
37019;SDS011;22932;52.442;16.896;2022-09-09T14:18:44;3.00;;;1.20;;
37019;SDS011;22932;52.442;16.896;2022-09-09T14:21:11;1.90;;;1.10;;
37019;SDS011;22932;52.442;16.896;2022-09-09T14:23:39;1.30;;;1.20;;
37019;SDS011;22932;52.442;16.896;2022-09-09T14:26:13;1.60;;;1.00;;
37019;SDS011;22932;52.442;16.896;2022-09-09T14:28:40;1.60;;;1.10;;
37019;SDS011;22932;52.442;16.896;2022-09-09T14:31:08;4.90;;;1.10;;
37019;SDS011;22932;52.442;16.896;2022-09-09T14:33:46;5.80;;;1.40;;
37019;SDS011;22932;52.442;16.896;2022-09-09T14:36:13;1.50;;;1.20;;
37019;SDS011;22932;52.442;16.896;2022-09-09T14:38:41;1.50;;;1.30;;
37019;SDS011;22932;52.442;16.896;2022-09-09T14:41:12;1.90;;;1.10;;
37019;SDS011;22932;52.442;16.896;2022-09-09T14:43:42;2.40;;;1.30;;
37019;SDS011;22932;52.442;16.896;2022-09-09T14:46:10;1.60;;;1.20;;
37019;SDS011;22932;52.442;16.896;2022-09-09T14:48:39;1.80;;;1.20;;
37019;SDS011;22932;52.442;16.896;2022-09-09T14:51:08;2.00;;;1.40;;
37019;SDS011;22932;52.442;16.896;2022-09-09T14:53:38;3.80;;;1.40;;
37019;SDS011;22932;52.442;16.896;2022-09-09T14:56:07;1.60;;;1.30;;
37019;SDS011;22932;52.442;16.896;2022-09-09T14:58:45;2.40;;;1.10;;
37019;SDS011;22932;52.442;16.896;2022-09-09T15:01:13;1.40;;;1.30;;
37019;SDS011;22932;52.442;16.896;2022-09-09T15:03:42;2.10;;;1.40;;
37019;SDS011;22932;52.442;16.896;2022-09-09T15:06:16;1.30;;;1.20;;
37019;SDS011;22932;52.442;16.896;2022-09-09T15:08:54;3.20;;;1.40;;
37019;SDS011;22932;52.442;16.896;2022-09-09T15:11:23;2.00;;;1.20;;
37019;SDS011;22932;52.442;16.896;2022-09-09T15:13:54;1.90;;;1.60;;
37019;SDS011;22932;52.442;16.896;2022-09-09T15:16:24;1.70;;;1.30;;
37019;SDS011;22932;52.442;16.896;2022-09-09T15:18:55;2.90;;;1.40;;
37019;SDS011;22932;52.442;16.896;2022-09-09T15:21:29;1.50;;;1.10;;
37019;SDS011;22932;52.442;16.896;2022-09-09T15:23:59;1.30;;;1.20;;
37019;SDS011;22932;52.442;16.896;2022-09-09T15:26:26;2.70;;;1.20;;
37019;SDS011;22932;52.442;16.896;2022-09-09T15:28:55;1.30;;;1.20;;
37019;SDS011;22932;52.442;16.896;2022-09-09T15:31:26;3.70;;;1.20;;